Time;durP1;ratioP1;P1;durP2;ratioP2;P2;SDS_P1;SDS_P2;PMS_P1;PMS_P2;Temp;Humidity;BMP_temperature;BMP_pressure;BME280_temperature;BME280_humidity;BME280_pressure;Samples;Min_cycle;Max_cycle;Signal;HPM_P1;HPM_P2
2022/03/26 00:01:21;;;;;;;34.85;21.63;;;;;;;;;;5111960;28;20493;-65
2022/03/26 00:03:46;;;;;;;31.52;21.63;;;;;;;;;;5110272;28;20068;-66
2022/03/26 00:06:12;;;;;;;33.42;21.42;;;;;;;;;;5110351;28;20034;-67
2022/03/26 00:08:37;;;;;;;30.63;20.98;;;;;;;;;;5114060;28;20098;-68
2022/03/26 00:11:02;;;;;;;33.00;22.15;;;;;;;;;;5114051;28;20035;-68
2022/03/26 00:13:27;;;;;;;32.03;21.63;;;;;;;;;;5107239;28;20034;-68
2022/03/26 00:15:53;;;;;;;35.08;22.38;;;;;;;;;;5108437;28;20028;-67
2022/03/26 00:18:18;;;;;;;31.67;21.65;;;;;;;;;;5099110;28;20032;-68
2022/03/26 00:20:43;;;;;;;33.85;22.75;;;;;;;;;;5092648;28;20078;-68
2022/03/26 00:23:09;;;;;;;33.55;22.15;;;;;;;;;;5094054;28;20507;-68
2022/03/26 00:25:34;;;;;;;31.67;21.35;;;;;;;;;;5102774;28;20463;-68
2022/03/26 00:27:59;;;;;;;35.30;22.92;;;;;;;;;;5112311;28;20015;-68
2022/03/26 00:30:24;;;;;;;32.03;20.05;;;;;;;;;;5113025;28;20027;-67
2022/03/26 00:32:49;;;;;;;33.88;21.73;;;;;;;;;;5111890;28;20069;-68
2022/03/26 00:35:15;;;;;;;33.20;20.92;;;;;;;;;;5112784;28;20054;-66
2022/03/26 00:37:40;;;;;;;32.17;21.95;;;;;;;;;;5112188;28;20019;-67
2022/03/26 00:40:06;;;;;;;33.50;22.17;;;;;;;;;;5112008;28;20012;-68
2022/03/26 00:42:32;;;;;;;33.50;22.45;;;;;;;;;;5106215;28;20019;-67
2022/03/26 00:44:57;;;;;;;35.15;21.98;;;;;;;;;;5103762;28;20365;-67
2022/03/26 00:47:22;;;;;;;30.73;20.77;;;;;;;;;;5101862;28;20031;-67
2022/03/26 00:49:47;;;;;;;34.53;22.30;;;;;;;;;;5095044;28;20471;-67
2022/03/26 00:52:12;;;;;;;33.13;22.13;;;;;;;;;;5104931;28;20547;-67
2022/03/26 00:54:38;;;;;;;34.60;21.67;;;;;;;;;;5112724;28;20361;-67
2022/03/26 00:57:03;;;;;;;30.08;21.27;;;;;;;;;;5108861;28;20108;-67
2022/03/26 00:59:28;;;;;;;32.63;22.42;;;;;;;;;;5112681;28;20061;-67
2022/03/26 01:01:54;;;;;;;32.00;21.23;;;;;;;;;;5108925;28;20095;-67
2022/03/26 01:04:19;;;;;;;33.70;20.65;;;;;;;;;;5111118;28;20383;-67
2022/03/26 01:06:45;;;;;;;37.20;22.52;;;;;;;;;;5112449;28;20016;-67
2022/03/26 01:09:11;;;;;;;32.13;21.85;;;;;;;;;;5111849;28;20027;-67
2022/03/26 01:11:36;;;;;;;36.42;23.63;;;;;;;;;;5103733;28;20468;-67
2022/03/26 01:14:01;;;;;;;32.15;21.63;;;;;;;;;;5095834;28;20052;-67
2022/03/26 01:16:27;;;;;;;37.10;22.40;;;;;;;;;;5094851;28;20112;-67
2022/03/26 01:18:53;;;;;;;28.35;20.83;;;;;;;;;;5092016;28;20115;-66
2022/03/26 01:21:19;;;;;;;30.77;21.55;;;;;;;;;;5102973;28;20441;-67
2022/03/26 01:23:46;;;;;;;34.72;21.65;;;;;;;;;;5105020;28;20042;-67
2022/03/26 01:26:12;;;;;;;33.58;21.95;;;;;;;;;;5104765;28;20023;-67
2022/03/26 01:28:37;;;;;;;31.17;21.50;;;;;;;;;;5112282;28;20095;-67
2022/03/26 01:31:02;;;;;;;32.05;21.90;;;;;;;;;;5109066;28;20483;-67
2022/03/26 01:33:28;;;;;;;34.00;20.55;;;;;;;;;;5103035;28;20036;-67
2022/03/26 01:35:54;;;;;;;36.47;21.90;;;;;;;;;;5109077;28;20047;-67
2022/03/26 01:38:19;;;;;;;33.72;21.17;;;;;;;;;;5092060;28;20477;-67
2022/03/26 01:40:44;;;;;;;32.78;21.88;;;;;;;;;;5091859;28;20081;-67
2022/03/26 01:43:09;;;;;;;29.90;21.23;;;;;;;;;;5098948;28;20027;-68
2022/03/26 01:45:35;;;;;;;30.08;19.55;;;;;;;;;;5104924;28;20023;-67
2022/03/26 01:48:00;;;;;;;31.67;21.35;;;;;;;;;;5111527;28;20526;-68
2022/03/26 01:50:26;;;;;;;30.75;20.73;;;;;;;;;;5111380;28;20019;-67
2022/03/26 01:52:51;;;;;;;31.30;20.33;;;;;;;;;;5105914;28;20067;-66
2022/03/26 01:55:17;;;;;;;30.23;20.42;;;;;;;;;;5095592;28;20055;-67
2022/03/26 01:57:43;;;;;;;31.80;20.77;;;;;;;;;;5109440;28;20079;-67
2022/03/26 02:00:08;;;;;;;35.63;20.85;;;;;;;;;;5112359;28;20482;-68
2022/03/26 02:02:34;;;;;;;31.08;20.73;;;;;;;;;;5109461;28;20027;-67
2022/03/26 02:04:59;;;;;;;33.05;20.67;;;;;;;;;;5107925;28;20023;-68
2022/03/26 02:07:24;;;;;;;30.95;20.48;;;;;;;;;;5105582;28;20392;-67
2022/03/26 02:09:50;;;;;;;31.48;20.45;;;;;;;;;;5097660;28;20266;-68
2022/03/26 02:12:22;;;;;;;30.38;21.33;;;;;;;;;;5104516;28;20023;-68
2022/03/26 02:14:48;;;;;;;31.25;19.55;;;;;;;;;;5113164;28;20073;-67
2022/03/26 02:17:13;;;;;;;29.15;19.38;;;;;;;;;;5104067;28;20020;-67
2022/03/26 02:19:38;;;;;;;30.95;19.80;;;;;;;;;;5095175;28;20483;-67
2022/03/26 02:22:04;;;;;;;34.50;22.05;;;;;;;;;;5114017;28;20023;-66
2022/03/26 02:24:29;;;;;;;28.98;19.48;;;;;;;;;;5111136;28;20021;-67
2022/03/26 02:26:54;;;;;;;30.52;20.83;;;;;;;;;;5102838;28;20024;-67
2022/03/26 02:29:20;;;;;;;32.10;21.40;;;;;;;;;;5115850;28;20047;-66
2022/03/26 02:31:45;;;;;;;32.95;21.23;;;;;;;;;;5111275;28;20084;-67
2022/03/26 02:34:10;;;;;;;33.38;20.25;;;;;;;;;;5097531;28;20408;-67
2022/03/26 02:36:35;;;;;;;27.88;19.90;;;;;;;;;;5111832;28;20471;-67
2022/03/26 02:39:01;;;;;;;31.13;19.90;;;;;;;;;;5114861;28;20101;-67
2022/03/26 02:41:26;;;;;;;32.13;19.98;;;;;;;;;;5113637;28;20024;-67
2022/03/26 02:43:51;;;;;;;29.98;20.65;;;;;;;;;;5103590;28;20020;-66
2022/03/26 02:46:17;;;;;;;30.13;20.63;;;;;;;;;;5106246;28;20028;-67
2022/03/26 02:48:44;;;;;;;32.70;20.38;;;;;;;;;;5103278;28;20036;-67
2022/03/26 02:51:10;;;;;;;31.55;20.05;;;;;;;;;;5106320;28;20487;-67
2022/03/26 02:53:35;;;;;;;30.58;19.67;;;;;;;;;;5115097;28;20024;-66
2022/03/26 02:56:00;;;;;;;32.67;20.88;;;;;;;;;;5098244;28;20052;-67
2022/03/26 02:58:25;;;;;;;32.72;20.98;;;;;;;;;;5110097;28;20069;-66
2022/03/26 03:00:51;;;;;;;30.08;19.85;;;;;;;;;;5104248;28;20471;-65
2022/03/26 03:03:16;;;;;;;30.65;20.17;;;;;;;;;;5099963;28;20019;-67
2022/03/26 03:05:42;;;;;;;29.90;19.98;;;;;;;;;;5098349;28;20048;-67
2022/03/26 03:08:08;;;;;;;33.35;21.02;;;;;;;;;;5093880;28;20031;-67
2022/03/26 03:10:33;;;;;;;31.92;20.58;;;;;;;;;;5096234;28;20032;-66
2022/03/26 03:12:59;;;;;;;33.33;20.42;;;;;;;;;;5103301;28;20146;-67
2022/03/26 03:15:24;;;;;;;34.97;20.55;;;;;;;;;;5102907;28;20016;-66
2022/03/26 03:17:50;;;;;;;31.77;21.05;;;;;;;;;;5104810;28;20035;-67
2022/03/26 03:20:16;;;;;;;33.65;21.67;;;;;;;;;;5103171;28;20384;-67
2022/03/26 03:22:42;;;;;;;32.42;21.60;;;;;;;;;;5094924;28;20024;-66
2022/03/26 03:25:07;;;;;;;33.40;20.20;;;;;;;;;;5101895;28;20011;-67
2022/03/26 03:27:33;;;;;;;32.55;20.90;;;;;;;;;;5108134;28;20031;-67
2022/03/26 03:29:58;;;;;;;30.60;20.70;;;;;;;;;;5112277;28;20028;-67
2022/03/26 03:32:24;;;;;;;34.60;20.73;;;;;;;;;;5112650;28;20019;-66
2022/03/26 03:34:50;;;;;;;35.47;20.75;;;;;;;;;;5114235;28;20028;-66
2022/03/26 03:37:15;;;;;;;30.95;20.35;;;;;;;;;;5111013;28;20614;-67
2022/03/26 03:39:41;;;;;;;34.40;20.42;;;;;;;;;;5108600;28;20032;-67
2022/03/26 03:42:06;;;;;;;34.30;21.42;;;;;;;;;;5097677;28;20020;-67
2022/03/26 03:44:31;;;;;;;31.08;20.63;;;;;;;;;;5106987;28;20024;-67
2022/03/26 03:46:56;;;;;;;35.85;21.90;;;;;;;;;;5104686;28;20032;-68
2022/03/26 03:49:22;;;;;;;32.50;20.30;;;;;;;;;;5102058;28;20024;-67
2022/03/26 03:51:47;;;;;;;33.20;20.65;;;;;;;;;;5095455;28;20493;-68
2022/03/26 03:54:13;;;;;;;29.53;20.57;;;;;;;;;;5111348;28;20555;-67
2022/03/26 03:56:38;;;;;;;32.53;20.42;;;;;;;;;;5107306;28;20020;-67
2022/03/26 03:59:03;;;;;;;31.73;19.90;;;;;;;;;;5099988;28;20032;-68
2022/03/26 04:01:28;;;;;;;32.53;21.40;;;;;;;;;;5109008;28;20062;-67
2022/03/26 04:03:54;;;;;;;33.43;20.50;;;;;;;;;;5108486;28;20059;-66
2022/03/26 04:06:19;;;;;;;32.40;21.00;;;;;;;;;;5094288;28;20110;-66
2022/03/26 04:08:44;;;;;;;31.53;20.93;;;;;;;;;;5110249;28;20032;-66
2022/03/26 04:11:09;;;;;;;32.77;21.30;;;;;;;;;;5097673;28;20032;-68
2022/03/26 04:13:35;;;;;;;32.13;19.77;;;;;;;;;;5103478;28;20046;-67
2022/03/26 04:16:00;;;;;;;33.10;21.07;;;;;;;;;;5109906;28;20053;-68
2022/03/26 04:18:26;;;;;;;33.37;22.20;;;;;;;;;;5113277;28;20023;-67
2022/03/26 04:20:51;;;;;;;34.10;21.70;;;;;;;;;;5112304;28;20072;-67
2022/03/26 04:23:18;;;;;;;32.93;21.63;;;;;;;;;;5104440;28;20388;-68
2022/03/26 04:25:43;;;;;;;36.27;21.80;;;;;;;;;;5099536;28;20031;-68
2022/03/26 04:28:09;;;;;;;32.40;20.43;;;;;;;;;;5111861;27;20029;-67
2022/03/26 04:30:34;;;;;;;33.33;20.33;;;;;;;;;;5108333;28;20372;-65
2022/03/26 04:32:59;;;;;;;31.60;21.10;;;;;;;;;;5094278;28;20481;-66
2022/03/26 04:35:24;;;;;;;34.37;22.27;;;;;;;;;;5109441;28;20016;-66
2022/03/26 04:37:52;;;;;;;30.53;20.17;;;;;;;;;;5105850;28;20467;-67
2022/03/26 04:40:17;;;;;;;31.87;20.57;;;;;;;;;;5110075;28;20072;-67
2022/03/26 04:42:42;;;;;;;33.70;20.50;;;;;;;;;;5099194;28;20020;-67
2022/03/26 04:45:09;;;;;;;28.27;19.27;;;;;;;;;;5103948;28;20026;-67
2022/03/26 04:47:34;;;;;;;30.73;20.33;;;;;;;;;;5111859;28;20057;-65
2022/03/26 04:49:59;;;;;;;33.50;21.03;;;;;;;;;;5112003;28;20474;-67
2022/03/26 04:52:24;;;;;;;32.80;19.93;;;;;;;;;;5105546;28;20027;-66
2022/03/26 04:54:50;;;;;;;34.97;20.90;;;;;;;;;;5096590;28;20032;-69
2022/03/26 04:57:18;;;;;;;31.57;20.93;;;;;;;;;;5104999;28;20096;-67
2022/03/26 04:59:44;;;;;;;32.17;20.77;;;;;;;;;;5110929;28;20096;-66
2022/03/26 05:02:09;;;;;;;32.40;20.30;;;;;;;;;;5112907;28;20369;-68
2022/03/26 05:04:34;;;;;;;35.83;22.10;;;;;;;;;;5105345;28;20067;-67
2022/03/26 05:06:59;;;;;;;29.08;20.10;;;;;;;;;;5092755;28;20020;-68
2022/03/26 05:09:25;;;;;;;31.53;19.33;;;;;;;;;;5091355;28;20059;-68
2022/03/26 05:11:50;;;;;;;33.17;21.03;;;;;;;;;;5094245;28;20155;-67
2022/03/26 05:14:16;;;;;;;32.33;20.50;;;;;;;;;;5094342;28;20065;-67
2022/03/26 05:16:42;;;;;;;30.97;20.10;;;;;;;;;;5094969;28;20027;-68
2022/03/26 05:19:07;;;;;;;36.57;21.67;;;;;;;;;;5091844;28;20020;-68
2022/03/26 05:21:32;;;;;;;28.67;20.17;;;;;;;;;;5092318;28;20058;-67
2022/03/26 05:23:58;;;;;;;31.23;19.80;;;;;;;;;;5092448;28;20020;-67
2022/03/26 05:26:23;;;;;;;32.57;19.83;;;;;;;;;;5098644;28;20027;-67
2022/03/26 05:28:49;;;;;;;30.35;19.73;;;;;;;;;;5100398;28;20039;-67
2022/03/26 05:31:14;;;;;;;33.97;20.50;;;;;;;;;;5104856;28;20114;-67
2022/03/26 05:33:40;;;;;;;31.93;20.17;;;;;;;;;;5100247;28;20504;-67
2022/03/26 05:36:05;;;;;;;31.65;19.50;;;;;;;;;;5103638;28;20044;-68
2022/03/26 05:38:31;;;;;;;31.13;20.03;;;;;;;;;;5091801;28;20411;-68
2022/03/26 05:40:56;;;;;;;30.45;20.02;;;;;;;;;;5091756;28;20016;-67
2022/03/26 05:43:23;;;;;;;29.95;20.25;;;;;;;;;;5104585;28;20023;-66
2022/03/26 05:45:50;;;;;;;31.20;20.90;;;;;;;;;;5107462;28;20483;-67
2022/03/26 05:48:16;;;;;;;29.50;19.60;;;;;;;;;;5108196;28;20015;-67
2022/03/26 05:50:41;;;;;;;33.43;20.80;;;;;;;;;;5105013;28;20076;-65
2022/03/26 05:53:06;;;;;;;29.40;20.03;;;;;;;;;;5111321;28;20506;-67
2022/03/26 05:55:32;;;;;;;29.20;19.60;;;;;;;;;;5100331;28;20020;-67
2022/03/26 05:57:57;;;;;;;30.40;19.73;;;;;;;;;;5105122;28;20050;-67
2022/03/26 06:00:22;;;;;;;32.03;20.42;;;;;;;;;;5097906;28;20492;-67
2022/03/26 06:02:47;;;;;;;28.50;19.20;;;;;;;;;;5111015;28;20487;-67
2022/03/26 06:05:13;;;;;;;32.85;20.25;;;;;;;;;;5105945;28;20054;-67
2022/03/26 06:07:38;;;;;;;35.70;20.17;;;;;;;;;;5094585;28;20081;-67
2022/03/26 06:10:03;;;;;;;31.55;19.27;;;;;;;;;;5098293;28;20032;-68
2022/03/26 06:12:28;;;;;;;30.37;20.23;;;;;;;;;;5073661;28;20111;-68
2022/03/26 06:14:54;;;;;;;35.93;21.37;;;;;;;;;;5108639;28;20495;-68
2022/03/26 06:17:21;;;;;;;35.47;21.50;;;;;;;;;;5091730;28;20034;-68
2022/03/26 06:19:46;;;;;;;33.15;20.10;;;;;;;;;;5095609;28;20020;-67
2022/03/26 06:22:11;;;;;;;32.97;20.80;;;;;;;;;;5111392;28;20018;-67
2022/03/26 06:24:37;;;;;;;35.00;21.67;;;;;;;;;;5109531;28;20016;-67
2022/03/26 06:27:02;;;;;;;32.28;20.48;;;;;;;;;;5102271;28;20035;-68
2022/03/26 06:29:28;;;;;;;36.23;21.87;;;;;;;;;;5104457;28;20480;-66
2022/03/26 06:31:53;;;;;;;31.42;21.25;;;;;;;;;;5103278;28;20031;-66
2022/03/26 06:34:18;;;;;;;31.13;21.08;;;;;;;;;;5101638;28;20035;-68
2022/03/26 06:36:44;;;;;;;34.65;20.05;;;;;;;;;;5108683;28;20019;-66
2022/03/26 06:39:10;;;;;;;31.80;21.13;;;;;;;;;;5100151;28;20039;-68
2022/03/26 06:41:41;;;;;;;29.42;20.13;;;;;;;;;;5097304;28;20020;-66
2022/03/26 06:44:10;;;;;;;34.05;20.98;;;;;;;;;;5103964;28;20570;-67
2022/03/26 06:46:35;;;;;;;33.78;20.38;;;;;;;;;;5106842;28;20099;-67
2022/03/26 06:49:01;;;;;;;30.95;21.15;;;;;;;;;;5105662;28;20512;-67
2022/03/26 06:51:26;;;;;;;30.48;20.60;;;;;;;;;;5093598;28;20032;-67
2022/03/26 06:53:51;;;;;;;31.73;21.48;;;;;;;;;;5093589;28;20027;-67
2022/03/26 06:56:16;;;;;;;28.98;19.58;;;;;;;;;;5107136;27;20043;-66
2022/03/26 06:58:42;;;;;;;32.63;21.05;;;;;;;;;;5109036;28;20035;-67
2022/03/26 07:01:07;;;;;;;31.92;20.10;;;;;;;;;;5103460;27;20028;-66
2022/03/26 07:03:32;;;;;;;34.00;20.50;;;;;;;;;;5107791;27;20030;-67
2022/03/26 07:05:58;;;;;;;31.70;20.48;;;;;;;;;;5099504;27;20026;-68
2022/03/26 07:08:23;;;;;;;30.30;21.50;;;;;;;;;;5113353;28;20573;-68
2022/03/26 07:10:48;;;;;;;36.00;21.45;;;;;;;;;;5109751;28;20042;-68
2022/03/26 07:13:14;;;;;;;34.78;21.60;;;;;;;;;;5112111;27;20437;-67
2022/03/26 07:15:39;;;;;;;32.22;21.60;;;;;;;;;;5109788;28;20024;-68
2022/03/26 07:18:04;;;;;;;32.50;22.02;;;;;;;;;;5110073;28;20361;-67
2022/03/26 07:20:30;;;;;;;35.65;23.05;;;;;;;;;;5109400;28;20028;-67
2022/03/26 07:22:55;;;;;;;35.50;22.52;;;;;;;;;;5115040;28;20467;-67
2022/03/26 07:25:20;;;;;;;33.78;21.67;;;;;;;;;;5112345;27;20169;-67
2022/03/26 07:27:45;;;;;;;34.97;22.20;;;;;;;;;;5108041;28;20011;-67
2022/03/26 07:30:11;;;;;;;31.77;21.83;;;;;;;;;;5106905;27;20028;-67
2022/03/26 07:32:36;;;;;;;36.45;21.95;;;;;;;;;;5102189;28;20024;-66
2022/03/26 07:35:02;;;;;;;28.85;19.58;;;;;;;;;;5104186;28;20028;-67
2022/03/26 07:37:28;;;;;;;30.13;19.52;;;;;;;;;;5103551;28;20030;-66
2022/03/26 07:39:53;;;;;;;28.65;19.80;;;;;;;;;;5113993;28;20024;-65
2022/03/26 07:42:18;;;;;;;28.45;18.80;;;;;;;;;;5114029;28;20459;-66
2022/03/26 07:44:43;;;;;;;30.65;20.05;;;;;;;;;;5113853;28;20547;-66
2022/03/26 07:47:09;;;;;;;27.60;18.45;;;;;;;;;;5101075;28;20060;-67
2022/03/26 07:49:34;;;;;;;30.17;19.95;;;;;;;;;;5099876;28;20034;-66
2022/03/26 07:51:59;;;;;;;29.55;19.98;;;;;;;;;;5113123;28;20023;-67
2022/03/26 07:54:25;;;;;;;31.45;19.38;;;;;;;;;;5099828;28;20082;-67
2022/03/26 07:56:50;;;;;;;29.33;20.35;;;;;;;;;;5100465;28;20036;-67
2022/03/26 07:59:15;;;;;;;33.53;19.48;;;;;;;;;;5107604;28;20020;-66
2022/03/26 08:01:41;;;;;;;29.45;18.75;;;;;;;;;;5112676;28;20027;-66
2022/03/26 08:04:06;;;;;;;28.52;20.38;;;;;;;;;;5110724;28;20055;-67
2022/03/26 08:06:31;;;;;;;31.20;19.73;;;;;;;;;;5113573;28;20076;-67
2022/03/26 08:08:56;;;;;;;30.85;19.00;;;;;;;;;;5113412;28;20110;-68
2022/03/26 08:11:21;;;;;;;26.58;18.88;;;;;;;;;;5104504;27;20081;-67
2022/03/26 08:13:47;;;;;;;29.20;19.85;;;;;;;;;;5108463;28;20031;-67
2022/03/26 08:16:12;;;;;;;27.50;19.10;;;;;;;;;;5104664;28;20028;-67
2022/03/26 08:18:37;;;;;;;29.00;19.90;;;;;;;;;;5092768;28;20531;-67
2022/03/26 08:21:03;;;;;;;30.50;19.40;;;;;;;;;;5098046;28;20016;-68
2022/03/26 08:23:28;;;;;;;31.88;20.48;;;;;;;;;;5102787;28;20458;-68
2022/03/26 08:28:51;;;;;;;31.70;20.25;;;;;;;;;;5094796;28;20544;-67
2022/03/26 08:31:17;;;;;;;28.27;20.27;;;;;;;;;;5097073;27;20391;-66
2022/03/26 08:33:43;;;;;;;27.05;19.20;;;;;;;;;;5103584;27;20023;-67
2022/03/26 08:36:09;;;;;;;30.15;19.75;;;;;;;;;;5103693;27;20062;-67
2022/03/26 08:38:34;;;;;;;29.42;19.27;;;;;;;;;;5109524;28;20031;-66
2022/03/26 08:41:00;;;;;;;27.10;18.42;;;;;;;;;;5105644;27;20016;-66
2022/03/26 08:43:25;;;;;;;32.35;20.67;;;;;;;;;;5101474;28;20028;-67
2022/03/26 08:45:50;;;;;;;26.90;19.08;;;;;;;;;;5097176;28;20069;-68
2022/03/26 08:48:19;;;;;;;28.23;19.85;;;;;;;;;;5111961;28;20027;-67
2022/03/26 08:50:44;;;;;;;28.75;18.60;;;;;;;;;;5105415;28;20039;-67
2022/03/26 08:53:10;;;;;;;28.08;19.20;;;;;;;;;;5113334;28;20019;-68
2022/03/26 08:55:35;;;;;;;31.30;20.13;;;;;;;;;;5098069;28;20023;-68
2022/03/26 08:58:00;;;;;;;30.58;19.13;;;;;;;;;;5093214;28;20269;-69
2022/03/26 09:00:27;;;;;;;32.55;20.02;;;;;;;;;;5106560;28;20047;-65
2022/03/26 09:02:52;;;;;;;32.35;20.45;;;;;;;;;;5112590;28;20380;-67
2022/03/26 09:05:17;;;;;;;30.95;21.98;;;;;;;;;;5110934;27;20119;-67
2022/03/26 09:07:42;;;;;;;34.83;21.45;;;;;;;;;;5112902;28;20024;-68
2022/03/26 09:10:08;;;;;;;32.17;20.17;;;;;;;;;;5104770;28;20571;-68
2022/03/26 09:12:33;;;;;;;33.38;22.20;;;;;;;;;;5111203;28;20502;-68
2022/03/26 09:14:58;;;;;;;33.20;20.83;;;;;;;;;;5106498;28;20461;-68
2022/03/26 09:17:24;;;;;;;33.40;22.52;;;;;;;;;;5110690;28;20034;-67
2022/03/26 09:19:49;;;;;;;32.85;22.15;;;;;;;;;;5092076;28;20016;-67
2022/03/26 09:22:14;;;;;;;37.85;21.95;;;;;;;;;;5095126;28;20069;-68
2022/03/26 09:24:40;;;;;;;31.30;21.30;;;;;;;;;;5111487;28;20074;-68
2022/03/26 09:27:05;;;;;;;32.42;20.35;;;;;;;;;;5100413;28;20332;-67
2022/03/26 09:29:30;;;;;;;33.50;22.13;;;;;;;;;;5096389;28;20020;-68
2022/03/26 09:31:55;;;;;;;32.92;22.60;;;;;;;;;;5092421;28;20016;-68
2022/03/26 09:34:21;;;;;;;32.55;21.45;;;;;;;;;;5091903;28;20480;-68
2022/03/26 09:36:47;;;;;;;32.38;23.27;;;;;;;;;;5106712;28;20016;-67
2022/03/26 09:39:12;;;;;;;32.20;22.65;;;;;;;;;;5102798;28;20285;-68
2022/03/26 09:41:37;;;;;;;32.80;21.98;;;;;;;;;;5097872;28;20068;-67
2022/03/26 09:44:03;;;;;;;30.52;18.95;;;;;;;;;;5096355;28;20052;-68
2022/03/26 09:46:28;;;;;;;31.80;21.55;;;;;;;;;;5094285;28;20036;-68
2022/03/26 09:48:53;;;;;;;35.63;22.55;;;;;;;;;;5102157;28;20032;-67
2022/03/26 09:51:20;;;;;;;31.50;22.33;;;;;;;;;;5091810;28;20066;-67
2022/03/26 09:53:45;;;;;;;32.35;21.85;;;;;;;;;;5111568;28;20023;-67
2022/03/26 09:56:11;;;;;;;34.05;22.95;;;;;;;;;;5107944;28;20403;-68
2022/03/26 09:58:36;;;;;;;33.25;21.17;;;;;;;;;;5104665;28;20130;-68
2022/03/26 10:01:01;;;;;;;31.73;21.67;;;;;;;;;;5105905;28;20106;-68
2022/03/26 10:03:26;;;;;;;34.33;21.05;;;;;;;;;;5112189;28;20102;-68
2022/03/26 10:06:09;;;;;;;33.50;21.95;;;;;;;;;;5110439;28;20072;-68
2022/03/26 10:08:36;;;;;;;33.28;20.63;;;;;;;;;;5103097;28;20114;-68
2022/03/26 10:11:02;;;;;;;35.38;21.73;;;;;;;;;;5093663;28;20039;-68
2022/03/26 10:13:33;;;;;;;29.80;20.17;;;;;;;;;;5098459;28;20480;-68
2022/03/26 10:15:59;;;;;;;32.00;19.52;;;;;;;;;;5104607;28;20543;-68
2022/03/26 10:18:24;;;;;;;33.60;21.70;;;;;;;;;;5091527;28;20028;-68
2022/03/26 10:20:59;;;;;;;32.85;20.73;;;;;;;;;;5103802;28;20027;-68
2022/03/26 10:23:28;;;;;;;31.05;20.20;;;;;;;;;;5110491;28;20024;-67
2022/03/26 10:26:05;;;;;;;25.83;18.42;;;;;;;;;;5102158;28;20039;-68
2022/03/26 10:28:31;;;;;;;31.17;18.58;;;;;;;;;;5102100;28;20027;-68
2022/03/26 10:34:00;;;;;;;31.00;19.65;;;;;;;;;;5110379;28;20073;-68
2022/03/26 10:36:25;;;;;;;25.83;19.30;;;;;;;;;;5108659;28;20055;-68
2022/03/26 10:38:50;;;;;;;27.40;17.98;;;;;;;;;;5110102;28;20054;-68
2022/03/26 10:41:20;;;;;;;26.15;17.67;;;;;;;;;;5111731;28;20109;-68
2022/03/26 10:43:45;;;;;;;24.40;17.90;;;;;;;;;;5110206;28;20055;-68
2022/03/26 10:46:10;;;;;;;27.05;18.90;;;;;;;;;;5112003;28;20051;-68
2022/03/26 10:48:36;;;;;;;26.00;17.05;;;;;;;;;;5105418;28;20027;-68
2022/03/26 10:51:06;;;;;;;23.90;16.83;;;;;;;;;;5104574;28;20066;-68
2022/03/26 10:53:41;;;;;;;32.00;19.88;;;;;;;;;;5103990;28;20020;-68
2022/03/26 10:56:08;;;;;;;22.85;16.60;;;;;;;;;;5110182;28;20498;-67
2022/03/26 10:58:34;;;;;;;23.55;16.95;;;;;;;;;;5101547;28;20167;-68
2022/03/26 11:00:59;;;;;;;24.48;17.10;;;;;;;;;;5104607;28;20480;-68
2022/03/26 11:03:25;;;;;;;18.10;13.68;;;;;;;;;;5104439;28;20482;-68
2022/03/26 11:05:52;;;;;;;19.50;13.68;;;;;;;;;;5109321;28;20539;-68
2022/03/26 11:08:18;;;;;;;20.05;14.23;;;;;;;;;;5102773;28;20114;-68
2022/03/26 11:10:45;;;;;;;22.48;15.13;;;;;;;;;;5098120;28;21937;-69
2022/03/26 11:13:11;;;;;;;20.33;15.30;;;;;;;;;;5108848;28;20083;-68
2022/03/26 11:15:39;;;;;;;20.95;15.38;;;;;;;;;;5105100;28;20070;-67
2022/03/26 11:18:13;;;;;;;20.48;14.20;;;;;;;;;;5113148;28;20058;-68
2022/03/26 11:20:44;;;;;;;20.75;14.30;;;;;;;;;;5114058;28;20047;-68
2022/03/26 11:23:17;;;;;;;19.75;13.25;;;;;;;;;;5105820;28;20081;-68
2022/03/26 11:25:48;;;;;;;16.75;12.48;;;;;;;;;;5092597;28;20918;-68
2022/03/26 11:28:36;;;;;;;18.75;14.30;;;;;;;;;;5107194;28;20019;-68
2022/03/26 11:31:05;;;;;;;14.63;11.60;;;;;;;;;;5105489;28;20023;-68
2022/03/26 11:33:34;;;;;;;18.92;14.48;;;;;;;;;;5114115;28;20491;-66
2022/03/26 11:36:01;;;;;;;17.40;13.68;;;;;;;;;;5109760;28;20051;-66
2022/03/26 11:38:28;;;;;;;13.23;9.75;;;;;;;;;;5111839;28;20020;-66
2022/03/26 11:41:04;;;;;;;13.55;10.10;;;;;;;;;;5092891;28;20012;-67
2022/03/26 11:43:42;;;;;;;15.80;10.52;;;;;;;;;;5106545;28;20047;-67
2022/03/26 11:51:35;;;;;;;15.63;12.07;;;;;;;;;;5100476;28;20103;-66
2022/03/26 11:54:12;;;;;;;15.00;11.18;;;;;;;;;;5113985;28;20051;-67
2022/03/26 11:56:37;;;;;;;16.38;11.07;;;;;;;;;;5101759;28;20027;-65
2022/03/26 11:59:02;;;;;;;16.40;11.90;;;;;;;;;;5111112;28;20085;-66
2022/03/26 12:01:34;;;;;;;15.53;12.73;;;;;;;;;;5107854;28;20016;-67
2022/03/26 12:04:07;;;;;;;15.95;12.52;;;;;;;;;;5113170;28;20047;-66
2022/03/26 12:06:40;;;;;;;14.73;12.15;;;;;;;;;;5103293;28;20028;-67
2022/03/26 12:09:05;;;;;;;21.73;11.98;;;;;;;;;;5107095;28;20506;-67
2022/03/26 12:11:34;;;;;;;13.88;11.98;;;;;;;;;;5108746;28;20055;-67
2022/03/26 12:14:01;;;;;;;14.25;10.93;;;;;;;;;;5098956;28;20052;-67
2022/03/26 12:16:46;;;;;;;12.05;9.55;;;;;;;;;;5105663;27;20497;-66
2022/03/26 12:19:11;;;;;;;11.38;9.43;;;;;;;;;;5107625;28;20035;-66
2022/03/26 12:21:48;;;;;;;14.83;9.57;;;;;;;;;;5111308;28;20391;-66
2022/03/26 12:24:17;;;;;;;14.13;10.55;;;;;;;;;;5112005;28;20804;-66
2022/03/26 12:26:49;;;;;;;13.65;9.98;;;;;;;;;;5106113;28;20380;-67
2022/03/26 12:29:14;;;;;;;13.98;9.85;;;;;;;;;;5102580;28;20043;-67
2022/03/26 12:31:40;;;;;;;14.43;10.55;;;;;;;;;;5112283;28;20028;-67
2022/03/26 12:34:05;;;;;;;13.02;8.57;;;;;;;;;;5111812;27;20020;-67
2022/03/26 12:36:33;;;;;;;11.20;9.13;;;;;;;;;;5112385;28;20038;-67
2022/03/26 12:39:00;;;;;;;10.48;8.35;;;;;;;;;;5104778;28;20028;-67
2022/03/26 12:41:25;;;;;;;9.90;8.55;;;;;;;;;;5104743;27;20042;-67
2022/03/26 12:43:54;;;;;;;13.20;9.17;;;;;;;;;;5112081;28;20028;-67
2022/03/26 12:46:19;;;;;;;11.82;8.93;;;;;;;;;;5111788;28;20031;-67
2022/03/26 12:48:44;;;;;;;9.63;8.33;;;;;;;;;;5105351;28;20023;-67
2022/03/26 12:51:10;;;;;;;9.27;6.63;;;;;;;;;;5108484;28;20080;-66
2022/03/26 12:53:37;;;;;;;8.80;6.55;;;;;;;;;;5112512;27;20521;-67
2022/03/26 12:56:02;;;;;;;6.97;6.28;;;;;;;;;;5093359;28;20038;-67
2022/03/26 13:01:12;;;;;;;8.20;6.70;;;;;;;;;;5109156;28;20467;-67
2022/03/26 13:03:38;;;;;;;8.10;7.00;;;;;;;;;;5106693;28;20541;-67
2022/03/26 13:06:07;;;;;;;7.47;6.78;;;;;;;;;;5111473;28;20023;-68
2022/03/26 13:08:32;;;;;;;7.50;6.80;;;;;;;;;;5095486;28;20445;-67
2022/03/26 13:11:03;;;;;;;7.18;6.57;;;;;;;;;;5092360;28;20056;-67
2022/03/26 13:13:29;;;;;;;8.20;7.40;;;;;;;;;;5110476;28;20030;-67
2022/03/26 13:16:04;;;;;;;7.97;7.18;;;;;;;;;;5108066;28;20388;-67
2022/03/26 13:18:29;;;;;;;8.27;7.57;;;;;;;;;;5109916;28;20035;-67
2022/03/26 13:20:57;;;;;;;8.40;7.53;;;;;;;;;;5106480;28;20035;-67
2022/03/26 13:23:26;;;;;;;8.45;7.63;;;;;;;;;;5109896;27;20019;-67
2022/03/26 13:25:54;;;;;;;8.10;7.18;;;;;;;;;;5100475;27;20043;-67
2022/03/26 13:28:21;;;;;;;8.90;8.02;;;;;;;;;;5104497;28;20020;-67
2022/03/26 13:30:47;;;;;;;9.82;6.93;;;;;;;;;;5105776;27;20219;-66
2022/03/26 13:33:19;;;;;;;8.35;7.55;;;;;;;;;;5105149;28;20030;-67
2022/03/26 13:35:55;;;;;;;7.55;6.72;;;;;;;;;;5106625;28;20412;-67
2022/03/26 13:38:27;;;;;;;7.97;7.05;;;;;;;;;;5099286;27;20110;-67
2022/03/26 13:40:52;;;;;;;9.30;7.65;;;;;;;;;;5105757;27;20090;-67
2022/03/26 13:43:18;;;;;;;8.70;7.90;;;;;;;;;;5100557;27;20104;-67
2022/03/26 13:45:44;;;;;;;10.70;8.20;;;;;;;;;;5105831;27;20065;-68
2022/03/26 13:48:09;;;;;;;9.85;8.88;;;;;;;;;;5104458;27;20122;-67
2022/03/26 13:50:35;;;;;;;8.80;8.02;;;;;;;;;;5105880;28;20028;-68
2022/03/26 13:53:01;;;;;;;12.07;8.25;;;;;;;;;;5099669;28;20411;-68
2022/03/26 13:55:27;;;;;;;11.10;9.38;;;;;;;;;;5105022;28;20028;-67
2022/03/26 13:57:56;;;;;;;10.05;9.05;;;;;;;;;;5101483;28;20398;-67
2022/03/26 14:00:22;;;;;;;11.00;9.40;;;;;;;;;;5108439;28;20020;-68
2022/03/26 14:02:48;;;;;;;11.55;9.52;;;;;;;;;;5109939;27;20034;-66
2022/03/26 14:05:26;;;;;;;10.27;9.10;;;;;;;;;;5110715;27;20049;-67
2022/03/26 14:07:51;;;;;;;9.93;8.93;;;;;;;;;;5106608;28;20019;-66
2022/03/26 14:10:16;;;;;;;11.82;9.38;;;;;;;;;;5106316;27;20091;-66
2022/03/26 14:12:41;;;;;;;11.00;9.23;;;;;;;;;;5114757;27;20035;-67
2022/03/26 14:15:07;;;;;;;11.70;9.17;;;;;;;;;;5108016;27;20387;-67
2022/03/26 14:17:32;;;;;;;10.90;8.18;;;;;;;;;;5115706;28;20491;-67
2022/03/26 14:19:57;;;;;;;11.00;9.87;;;;;;;;;;5109682;27;20023;-66
2022/03/26 14:22:22;;;;;;;12.10;8.53;;;;;;;;;;5115566;28;20296;-67
2022/03/26 14:24:48;;;;;;;9.53;8.60;;;;;;;;;;5114135;28;20269;-67
2022/03/26 14:27:13;;;;;;;10.73;9.77;;;;;;;;;;5104722;27;20813;-66
2022/03/26 14:29:38;;;;;;;9.60;8.47;;;;;;;;;;5115279;28;20629;-67